Time;durP1;ratioP1;P1;durP2;ratioP2;P2;SDS_P1;SDS_P2;PMS_P1;PMS_P2;Temp;Humidity;BMP_temperature;BMP_pressure;BME280_temperature;BME280_humidity;BME280_pressure;Samples;Min_cycle;Max_cycle;Signal;HPM_P1;HPM_P2
2021/03/30 00:00:08;;;;;;;5.32;3.05;;;10.00;56.80;;;;;;5072482;28;20028;-73
2021/03/30 00:02:34;;;;;;;10.15;3.03;;;9.90;57.60;;;;;;5072618;28;20021;-73
2021/03/30 00:04:59;;;;;;;5.20;2.83;;;9.90;57.30;;;;;;5072519;28;20039;-72
2021/03/30 00:07:25;;;;;;;8.43;3.15;;;9.80;57.30;;;;;;5071168;28;20036;-73
2021/03/30 00:09:51;;;;;;;4.45;2.90;;;9.90;57.20;;;;;;5072366;28;20032;-73
2021/03/30 00:12:17;;;;;;;5.30;2.47;;;9.90;57.30;;;;;;5072392;28;20024;-73
2021/03/30 00:14:43;;;;;;;12.07;3.20;;;9.80;57.40;;;;;;5071814;28;20036;-73
2021/03/30 00:17:09;;;;;;;9.38;3.03;;;9.80;57.40;;;;;;5071907;28;20078;-73
2021/03/30 00:19:34;;;;;;;11.77;3.20;;;9.80;57.70;;;;;;5072042;28;20024;-73
2021/03/30 00:22:00;;;;;;;6.90;2.90;;;9.90;57.50;;;;;;5072247;28;20033;-73
2021/03/30 00:24:26;;;;;;;6.25;2.80;;;10.00;57.20;;;;;;5071066;28;20023;-73
2021/03/30 00:26:52;;;;;;;6.82;3.00;;;9.90;57.20;;;;;;5072137;28;20040;-73
2021/03/30 00:29:18;;;;;;;5.47;2.72;;;9.90;57.50;;;;;;5070778;28;20024;-73
2021/03/30 00:31:44;;;;;;;36.85;5.55;;;10.00;56.90;;;;;;5072212;28;20032;-73
2021/03/30 00:36:43;;;;;;;6.47;2.70;;;9.90;57.30;;;;;;5070474;28;20048;-73
2021/03/30 00:39:09;;;;;;;8.68;3.72;;;9.80;57.40;;;;;;5052993;28;20116;-73
2021/03/30 00:41:42;;;;;;;5.38;3.13;;;9.90;57.50;;;;;;5071928;28;20020;-74
2021/03/30 00:44:14;;;;;;;6.70;2.80;;;10.10;56.80;;;;;;5072026;28;20062;-74
2021/03/30 00:46:40;;;;;;;;;;;10.00;56.80;;;;;;5054690;28;20089;-74
2021/03/30 00:49:06;;;;;;;5.97;3.35;;;9.90;57.20;;;;;;5071781;28;19963;-74
2021/03/30 00:51:32;;;;;;;8.55;2.55;;;9.80;57.40;;;;;;5054079;28;20495;-74
2021/03/30 00:53:58;;;;;;;8.82;2.75;;;9.80;57.50;;;;;;5070749;28;20111;-72
2021/03/30 00:56:25;;;;;;;5.38;2.53;;;9.40;57.60;;;;;;5071706;28;20549;-71
2021/03/30 00:58:54;;;;;;;5.65;2.75;;;9.30;58.20;;;;;;5071627;28;20490;-73
2021/03/30 01:01:19;;;;;;;5.75;3.55;;;9.00;58.90;;;;;;5071775;28;20091;-73
2021/03/30 01:03:45;;;;;;;4.13;2.90;;;9.10;59.50;;;;;;5071733;28;20024;-73
2021/03/30 01:06:11;;;;;;;6.18;2.60;;;9.20;58.90;;;;;;5071844;28;20023;-73
2021/03/30 01:09:11;;;;;;;6.32;2.78;;;9.30;58.70;;;;;;5071736;28;20078;-73
2021/03/30 01:11:52;;;;;;;9.38;2.78;;;9.30;58.40;;;;;;5071889;28;20028;-73
2021/03/30 01:14:43;;;;;;;3.65;2.45;;;9.00;58.50;;;;;;5071789;28;20020;-73
2021/03/30 01:17:29;;;;;;;7.47;2.53;;;8.80;59.30;;;;;;5071379;28;20529;-73
2021/03/30 01:20:19;;;;;;;2.90;2.13;;;8.80;59.40;;;;;;5053606;28;20024;-73
2021/03/30 01:23:22;;;;;;;7.28;2.38;;;9.00;59.50;;;;;;5071682;28;20032;-73
2021/03/30 01:26:17;;;;;;;6.75;2.15;;;9.00;58.90;;;;;;5072230;28;20490;-73
2021/03/30 01:29:12;;;;;;;5.70;2.65;;;9.00;59.00;;;;;;5075421;28;20101;-73
2021/03/30 01:31:41;;;;;;;5.45;2.88;;;9.10;59.20;;;;;;5075555;28;20059;-73
2021/03/30 01:34:12;;;;;;;6.65;2.88;;;9.10;58.90;;;;;;5075480;28;20408;-72
2021/03/30 01:36:41;;;;;;;4.63;2.47;;;9.00;59.10;;;;;;5075236;28;20036;-72
2021/03/30 01:39:10;;;;;;;4.32;2.20;;;9.00;59.20;;;;;;5075315;28;20078;-73
2021/03/30 01:41:37;;;;;;;6.82;2.60;;;9.10;59.00;;;;;;5074133;28;20495;-73
2021/03/30 01:44:06;;;;;;;4.85;2.20;;;8.90;58.90;;;;;;5075210;28;20020;-73
2021/03/30 01:46:33;;;;;;;5.03;2.78;;;8.90;59.40;;;;;;5074998;28;20047;-73
2021/03/30 01:49:00;;;;;;;6.07;2.47;;;8.80;59.50;;;;;;5074966;28;20029;-73
2021/03/30 01:51:27;;;;;;;4.85;2.55;;;8.80;59.60;;;;;;5075117;28;20029;-73
2021/03/30 01:53:54;;;;;;;5.32;2.30;;;9.00;59.40;;;;;;5075199;28;20028;-73
2021/03/30 01:56:21;;;;;;;7.13;1.90;;;8.90;59.30;;;;;;5056949;28;20028;-73
2021/03/30 01:58:48;;;;;;;2.90;1.83;;;8.90;59.10;;;;;;5074831;28;20020;-73
2021/03/30 02:01:15;;;;;;;7.05;2.97;;;9.00;59.30;;;;;;5074954;28;20025;-73
2021/03/30 02:03:43;;;;;;;7.65;2.30;;;9.10;59.10;;;;;;5073705;28;20127;-73
2021/03/30 02:06:09;;;;;;;7.00;2.35;;;9.20;58.80;;;;;;5073588;28;20024;-73
2021/03/30 02:08:36;;;;;;;7.97;3.28;;;9.20;58.70;;;;;;5056645;28;20090;-73
2021/03/30 02:11:02;;;;;;;3.65;2.80;;;9.10;59.00;;;;;;5074797;28;20134;-73
2021/03/30 02:16:10;;;;;;;4.82;2.28;;;9.10;59.50;;;;;;5074415;28;20020;-73
2021/03/30 02:19:09;;;;;;;7.47;2.72;;;9.30;59.70;;;;;;5074539;28;20091;-73
2021/03/30 02:21:44;;;;;;;4.95;2.78;;;9.20;59.00;;;;;;5073323;28;20017;-73
2021/03/30 02:24:11;;;;;;;6.78;2.58;;;9.30;58.90;;;;;;5056605;28;20074;-73
2021/03/30 02:26:44;;;;;;;5.47;2.42;;;9.40;58.70;;;;;;5074435;28;20017;-73
2021/03/30 02:29:15;;;;;;;4.80;2.60;;;9.40;58.70;;;;;;5056438;28;20032;-73
2021/03/30 02:31:42;;;;;;;6.25;2.42;;;9.40;58.50;;;;;;5074314;28;20016;-73
2021/03/30 02:34:10;;;;;;;4.10;2.30;;;9.50;58.30;;;;;;5056415;28;20028;-73
2021/03/30 02:36:38;;;;;;;7.78;3.50;;;9.30;58.60;;;;;;5074330;28;20071;-73
2021/03/30 02:39:07;;;;;;;6.85;2.40;;;9.30;58.60;;;;;;5073438;28;20564;-73
2021/03/30 02:41:34;;;;;;;12.30;3.22;;;9.40;58.70;;;;;;5074204;28;20016;-73
2021/03/30 02:44:01;;;;;;;8.15;2.83;;;9.20;58.50;;;;;;5056180;28;20026;-73
2021/03/30 02:46:31;;;;;;;4.20;2.38;;;8.70;59.40;;;;;;5073972;28;20056;-73
2021/03/30 02:48:58;;;;;;;6.32;1.90;;;8.50;60.30;;;;;;5056065;28;20025;-73
2021/03/30 02:51:26;;;;;;;4.40;2.30;;;8.40;61.00;;;;;;5074159;28;20024;-73
2021/03/30 02:53:54;;;;;;;4.63;2.17;;;8.50;61.00;;;;;;5073972;28;20387;-73
2021/03/30 02:56:21;;;;;;;3.53;2.00;;;8.70;60.50;;;;;;5073817;28;20024;-73
2021/03/30 02:58:47;;;;;;;3.85;1.80;;;8.80;60.10;;;;;;5073668;28;20353;-73
2021/03/30 03:01:15;;;;;;;4.57;2.15;;;8.90;59.60;;;;;;5073945;28;20374;-73
2021/03/30 03:03:42;;;;;;;4.85;2.63;;;8.90;59.60;;;;;;5073713;28;20020;-73
2021/03/30 03:06:09;;;;;;;4.57;2.75;;;9.00;59.50;;;;;;5073756;28;20078;-73
2021/03/30 03:08:35;;;;;;;6.80;2.38;;;9.10;59.40;;;;;;5073445;28;20059;-73
2021/03/30 03:11:03;;;;;;;9.82;2.63;;;9.00;59.20;;;;;;5074148;28;20524;-73
2021/03/30 03:13:29;;;;;;;4.50;2.30;;;8.90;59.20;;;;;;5073556;28;20021;-73
2021/03/30 03:15:55;;;;;;;4.35;2.42;;;8.70;59.50;;;;;;5073234;28;20025;-73
2021/03/30 03:18:22;;;;;;;6.18;3.78;;;8.70;59.80;;;;;;5073280;28;20107;-73
2021/03/30 03:20:49;;;;;;;5.35;2.33;;;8.80;59.60;;;;;;5073437;28;20038;-73
2021/03/30 03:23:15;;;;;;;5.38;2.20;;;9.00;59.40;;;;;;5073360;28;20365;-73
2021/03/30 03:25:44;;;;;;;6.50;3.28;;;9.10;58.80;;;;;;5073245;28;20028;-73
2021/03/30 03:28:10;;;;;;;6.57;2.47;;;9.20;58.40;;;;;;5073207;28;20029;-73
2021/03/30 03:30:39;;;;;;;5.45;2.58;;;8.90;58.80;;;;;;5073175;28;20055;-73
2021/03/30 03:33:10;;;;;;;8.25;2.50;;;9.00;59.30;;;;;;5073178;28;20534;-73
2021/03/30 03:35:36;;;;;;;7.10;2.70;;;9.00;59.20;;;;;;5073014;28;20032;-73
2021/03/30 03:38:04;;;;;;;5.85;2.47;;;9.10;59.00;;;;;;5072900;28;20031;-73
2021/03/30 03:40:30;;;;;;;5.60;1.90;;;9.10;58.60;;;;;;5072948;28;20021;-73
2021/03/30 03:42:56;;;;;;;9.00;3.38;;;8.90;58.90;;;;;;5072947;28;20415;-73
2021/03/30 03:45:22;;;;;;;4.68;2.15;;;8.50;59.70;;;;;;5072895;28;20024;-73
2021/03/30 03:47:48;;;;;;;7.72;2.60;;;8.40;60.40;;;;;;5072788;28;20032;-73
2021/03/30 03:50:14;;;;;;;3.55;2.30;;;8.40;60.50;;;;;;5071775;28;20534;-73
2021/03/30 03:52:45;;;;;;;6.88;2.25;;;8.50;60.30;;;;;;5073070;28;20103;-72
2021/03/30 03:55:14;;;;;;;6.28;2.20;;;8.60;59.90;;;;;;5072817;28;20035;-73
2021/03/30 03:57:57;;;;;;;8.55;2.45;;;8.70;59.70;;;;;;5072795;28;20380;-73
2021/03/30 04:00:24;;;;;;;13.77;3.00;;;8.90;59.40;;;;;;5072616;28;20020;-73
2021/03/30 04:03:11;;;;;;;10.00;2.53;;;9.00;59.10;;;;;;5054645;28;20131;-73
2021/03/30 04:06:01;;;;;;;9.02;2.45;;;8.70;59.30;;;;;;5071444;28;20495;-73
2021/03/30 04:08:31;;;;;;;14.20;2.25;;;8.60;60.10;;;;;;5072359;28;20024;-73
2021/03/30 04:11:00;;;;;;;7.20;2.63;;;8.70;60.10;;;;;;5071570;28;20047;-73
2021/03/30 04:13:30;;;;;;;8.40;2.70;;;8.80;59.60;;;;;;5072367;28;20388;-73
2021/03/30 04:16:00;;;;;;;4.80;2.25;;;8.50;60.50;;;;;;5054371;28;20451;-73
2021/03/30 04:18:26;;;;;;;6.10;2.63;;;8.70;60.10;;;;;;5072172;28;20016;-73
2021/03/30 04:20:51;;;;;;;10.07;2.72;;;8.60;59.90;;;;;;5054361;28;20475;-73
2021/03/30 04:23:22;;;;;;;5.82;2.63;;;8.60;60.00;;;;;;5072239;28;20075;-73
2021/03/30 04:25:48;;;;;;;8.13;2.47;;;8.70;59.90;;;;;;5072321;28;20103;-73
2021/03/30 04:28:14;;;;;;;9.70;2.20;;;8.90;59.40;;;;;;5072097;28;20067;-73
2021/03/30 04:30:39;;;;;;;5.95;2.40;;;8.80;58.90;;;;;;5072121;28;20067;-73
2021/03/30 04:33:05;;;;;;;4.80;2.22;;;8.90;59.10;;;;;;5072162;28;20067;-73
2021/03/30 04:35:31;;;;;;;4.35;2.33;;;9.00;59.00;;;;;;5072096;28;20107;-73
2021/03/30 04:37:57;;;;;;;4.60;2.22;;;8.70;59.80;;;;;;5071840;28;20035;-73
2021/03/30 04:40:23;;;;;;;14.15;2.92;;;8.80;59.80;;;;;;5071971;28;20033;-73
2021/03/30 04:42:49;;;;;;;10.50;4.45;;;8.60;59.70;;;;;;5072065;28;20028;-73
2021/03/30 04:45:15;;;;;;;6.13;2.20;;;8.50;60.10;;;;;;5072015;28;20447;-73
2021/03/30 04:47:41;;;;;;;10.07;3.17;;;8.60;59.90;;;;;;5071953;28;20043;-73
2021/03/30 04:50:07;;;;;;;6.32;2.50;;;8.40;60.70;;;;;;5071878;28;20100;-73
2021/03/30 04:52:34;;;;;;;6.05;2.63;;;8.60;60.20;;;;;;5071842;28;20024;-73
2021/03/30 04:55:00;;;;;;;16.45;3.97;;;8.70;59.80;;;;;;5071925;28;20028;-73
2021/03/30 04:57:25;;;;;;;8.65;3.90;;;8.50;60.00;;;;;;5071812;28;20036;-73
2021/03/30 04:59:51;;;;;;;6.78;2.47;;;8.60;60.10;;;;;;5071759;28;20024;-73
2021/03/30 05:02:17;;;;;;;4.63;2.15;;;8.60;60.20;;;;;;5077417;28;20541;-73
2021/03/30 05:04:42;;;;;;;5.15;2.50;;;8.70;59.70;;;;;;5078409;28;20369;-73
2021/03/30 05:07:10;;;;;;;9.25;2.40;;;8.70;59.80;;;;;;5078308;28;20028;-73
2021/03/30 05:09:36;;;;;;;4.53;2.42;;;8.60;59.50;;;;;;5078299;28;20035;-73
2021/03/30 05:12:02;;;;;;;6.57;2.63;;;8.40;60.00;;;;;;5078424;28;20017;-73
2021/03/30 05:14:28;;;;;;;9.05;2.20;;;8.40;60.30;;;;;;5060284;28;20077;-73
2021/03/30 05:16:53;;;;;;;6.63;2.58;;;8.20;60.50;;;;;;5077979;28;20028;-73
2021/03/30 05:19:19;;;;;;;3.47;2.30;;;8.30;60.50;;;;;;5060429;28;20016;-73
2021/03/30 05:21:45;;;;;;;7.07;2.83;;;8.60;60.30;;;;;;5078231;28;20025;-73
2021/03/30 05:24:10;;;;;;;3.95;2.50;;;8.70;59.70;;;;;;5078235;28;20017;-73
2021/03/30 05:26:36;;;;;;;6.57;2.65;;;8.80;59.50;;;;;;5060264;28;20032;-73
2021/03/30 05:29:03;;;;;;;9.55;2.47;;;8.80;59.10;;;;;;5078074;28;20499;-73
2021/03/30 05:31:29;;;;;;;10.00;2.40;;;8.70;59.10;;;;;;5078242;28;20114;-73
2021/03/30 05:33:54;;;;;;;5.53;2.90;;;8.70;59.30;;;;;;5078096;28;20059;-73
2021/03/30 05:36:20;;;;;;;6.85;2.70;;;8.70;59.20;;;;;;5077973;28;20032;-73
2021/03/30 05:38:46;;;;;;;3.80;2.28;;;8.60;59.50;;;;;;5078146;28;20028;-74
2021/03/30 05:41:12;;;;;;;11.40;2.70;;;8.60;59.70;;;;;;5078273;28;20103;-73
2021/03/30 05:43:38;;;;;;;3.85;2.30;;;8.80;59.30;;;;;;5060239;28;20021;-73
2021/03/30 05:46:04;;;;;;;7.65;2.55;;;8.90;59.00;;;;;;5078082;28;20035;-73
2021/03/30 05:48:32;;;;;;;6.95;2.10;;;9.10;59.00;;;;;;5077774;28;20103;-73
2021/03/30 05:50:58;;;;;;;5.65;2.72;;;9.00;58.90;;;;;;5066793;28;20029;-73
2021/03/30 05:53:26;;;;;;;7.50;2.55;;;8.80;59.30;;;;;;5075361;28;20032;-73
2021/03/30 05:55:57;;;;;;;13.00;2.80;;;8.80;59.60;;;;;;5057901;28;20052;-73
2021/03/30 05:58:27;;;;;;;9.38;2.33;;;8.90;59.50;;;;;;5066204;28;20480;-73
2021/03/30 06:00:55;;;;;;;7.32;2.17;;;9.00;59.40;;;;;;5091964;28;20020;-73
2021/03/30 06:03:29;;;;;;;3.63;2.60;;;9.10;59.20;;;;;;5062776;28;20017;-73
2021/03/30 06:05:57;;;;;;;18.23;3.25;;;9.20;59.10;;;;;;5057828;28;20079;-73
2021/03/30 06:08:24;;;;;;;4.85;3.20;;;9.30;59.00;;;;;;5058024;28;20461;-73
2021/03/30 06:11:04;;;;;;;5.18;2.17;;;9.50;58.90;;;;;;5058004;28;20492;-73
2021/03/30 06:13:46;;;;;;;10.82;2.65;;;9.60;58.70;;;;;;5054386;28;20097;-73
2021/03/30 06:16:37;;;;;;;5.80;2.35;;;9.60;58.60;;;;;;5054496;28;20033;-73
2021/03/30 06:19:16;;;;;;;9.98;2.88;;;9.60;58.80;;;;;;5036575;28;20025;-73
2021/03/30 06:21:47;;;;;;;13.10;3.25;;;9.60;58.50;;;;;;5055001;28;20013;-73
2021/03/30 06:24:22;;;;;;;6.13;2.45;;;9.30;59.10;;;;;;5054456;28;20036;-73
2021/03/30 06:27:04;;;;;;;5.75;1.73;;;9.30;59.70;;;;;;5063923;28;20565;-74
2021/03/30 06:29:35;;;;;;;;;;;9.40;59.90;;;;;;5073552;28;20070;-73
2021/03/30 06:32:02;;;;;;;5.47;2.58;;;9.40;60.00;;;;;;5054466;28;19904;-73
2021/03/30 06:34:30;;;;;;;4.93;2.20;;;9.40;60.30;;;;;;5061010;28;20379;-73
2021/03/30 06:36:56;;;;;;;4.47;2.22;;;9.40;60.30;;;;;;5083736;22;20127;-74
2021/03/30 06:39:37;;;;;;;4.50;2.25;;;9.60;60.40;;;;;;5036211;28;20025;-73
2021/03/30 06:44:37;;;;;;;11.70;2.42;;;9.90;59.70;;;;;;5055807;28;20048;-74
2021/03/30 06:47:12;;;;;;;5.00;2.37;;;10.00;59.50;;;;;;5044622;28;20033;-74
2021/03/30 06:49:54;;;;;;;4.53;2.38;;;10.20;59.30;;;;;;5053722;28;20086;-74
2021/03/30 06:52:25;;;;;;;10.00;2.40;;;10.40;59.10;;;;;;5035092;28;20355;-74
2021/03/30 06:55:03;;;;;;;6.50;2.60;;;10.50;58.70;;;;;;5053936;28;20037;-74
2021/03/30 06:57:37;;;;;;;13.98;2.70;;;10.50;59.00;;;;;;5049359;28;20040;-74
2021/03/30 07:00:06;;;;;;;24.05;3.17;;;10.70;58.80;;;;;;5051827;28;20530;-76
2021/03/30 07:02:33;;;;;;;7.55;2.33;;;10.90;58.90;;;;;;5052529;28;20106;-75
2021/03/30 07:04:58;;;;;;;13.30;2.72;;;11.10;61.70;;;;;;5052247;28;20043;-75
2021/03/30 07:07:26;;;;;;;7.45;2.40;;;11.30;60.60;;;;;;5052393;28;20051;-73
2021/03/30 07:09:53;;;;;;;7.28;1.98;;;11.50;58.90;;;;;;5051779;28;20369;-74
2021/03/30 07:12:23;;;;;;;8.88;2.83;;;11.50;58.70;;;;;;5052535;28;20025;-75
2021/03/30 07:14:52;;;;;;;6.53;2.50;;;11.50;58.70;;;;;;5052303;28;20476;-74
2021/03/30 07:17:29;;;;;;;4.50;2.03;;;11.60;58.80;;;;;;5051743;28;20017;-74
2021/03/30 07:19:59;;;;;;;8.65;2.30;;;11.60;59.20;;;;;;5034483;28;20049;-74
2021/03/30 07:22:26;;;;;;;14.43;3.20;;;11.70;59.40;;;;;;5051449;28;20021;-74
2021/03/30 07:25:02;;;;;;;12.15;2.88;;;11.80;59.20;;;;;;5052045;28;20021;-74
2021/03/30 07:27:34;;;;;;;10.27;2.72;;;11.80;59.20;;;;;;5051706;28;20029;-74
2021/03/30 07:30:01;;;;;;;10.68;2.80;;;11.80;59.60;;;;;;5051393;28;20063;-74
2021/03/30 07:32:48;;;;;;;12.20;3.20;;;11.90;59.40;;;;;;5033932;28;20433;-74
2021/03/30 07:35:22;;;;;;;7.13;2.22;;;12.00;59.10;;;;;;5051728;28;20021;-74
2021/03/30 07:38:19;;;;;;;7.72;3.08;;;12.10;59.10;;;;;;5033204;28;20044;-76
2021/03/30 07:40:46;;;;;;;7.90;2.92;;;12.30;58.80;;;;;;5033942;28;20089;-74
2021/03/30 07:43:27;;;;;;;14.35;3.20;;;12.30;58.30;;;;;;5051531;28;20025;-74
2021/03/30 07:45:56;;;;;;;5.78;2.78;;;12.40;58.80;;;;;;5051744;28;20055;-74
2021/03/30 07:48:25;;;;;;;24.45;3.78;;;12.40;59.20;;;;;;5033447;28;20029;-74
2021/03/30 07:51:05;;;;;;;12.10;2.80;;;12.50;59.80;;;;;;5051086;28;20021;-74
2021/03/30 07:53:53;;;;;;;6.28;2.35;;;12.60;59.90;;;;;;5047366;28;20021;-74
2021/03/30 07:56:25;;;;;;;8.00;2.90;;;12.80;58.80;;;;;;5050756;28;20032;-75
2021/03/30 07:58:52;;;;;;;13.83;2.93;;;12.80;58.50;;;;;;5051044;28;20040;-75
2021/03/30 08:01:20;;;;;;;25.33;3.50;;;12.90;57.90;;;;;;5051028;28;20021;-73
2021/03/30 08:03:48;;;;;;;6.32;2.08;;;13.10;55.70;;;;;;5051222;28;20025;-75
2021/03/30 08:06:21;;;;;;;5.65;2.10;;;13.10;55.40;;;;;;5050478;28;20028;-74
2021/03/30 08:08:55;;;;;;;8.95;2.90;;;13.40;55.80;;;;;;5051218;28;20472;-74
2021/03/30 08:11:40;;;;;;;12.10;2.17;;;13.40;54.50;;;;;;5051264;28;20025;-74
2021/03/30 08:14:08;;;;;;;19.88;2.95;;;13.60;54.20;;;;;;5051308;28;20064;-74
2021/03/30 08:16:35;;;;;;;14.77;2.60;;;13.70;53.30;;;;;;5051251;28;20017;-74
2021/03/30 08:19:05;;;;;;;10.68;2.65;;;13.80;51.80;;;;;;5050630;28;20420;-74
2021/03/30 08:22:07;;;;;;;6.55;2.45;;;13.90;51.00;;;;;;5047036;28;20039;-74
2021/03/30 08:24:44;;;;;;;9.32;2.47;;;14.10;51.40;;;;;;5047288;28;20024;-74
2021/03/30 08:27:35;;;;;;;7.15;3.42;;;14.30;51.40;;;;;;5051151;28;20532;-75
2021/03/30 08:30:21;;;;;;;7.70;3.03;;;14.60;48.70;;;;;;5050368;28;20052;-72
2021/03/30 08:32:48;;;;;;;6.78;3.38;;;14.70;49.70;;;;;;5036800;28;20120;-73
2021/03/30 08:35:30;;;;;;;8.93;4.45;;;14.90;48.70;;;;;;5032244;28;20057;-73
2021/03/30 08:37:57;;;;;;;7.57;4.55;;;15.20;46.60;;;;;;5050388;28;20033;-73
2021/03/30 08:40:35;;;;;;;10.13;4.05;;;15.50;46.50;;;;;;5032362;28;20120;-73
2021/03/30 08:43:21;;;;;;;10.02;4.78;;;15.90;44.90;;;;;;5050501;28;20057;-73
2021/03/30 08:46:05;;;;;;;31.23;5.53;;;16.20;43.60;;;;;;5050008;28;20778;-73
2021/03/30 08:48:35;;;;;;;8.95;5.10;;;16.50;42.70;;;;;;5050495;28;20400;-73
2021/03/30 08:51:03;;;;;;;12.68;4.40;;;16.80;42.50;;;;;;5050868;28;20530;-73
2021/03/30 08:53:30;;;;;;;7.60;4.03;;;17.00;40.70;;;;;;5049696;28;20480;-74
2021/03/30 08:55:57;;;;;;;10.30;4.70;;;17.20;40.60;;;;;;5028236;28;20036;-74
2021/03/30 08:58:26;;;;;;;9.95;3.65;;;17.50;40.40;;;;;;5049807;28;20028;-74
2021/03/30 09:00:54;;;;;;;4.47;3.10;;;17.70;39.30;;;;;;5050522;28;20029;-75
2021/03/30 09:03:28;;;;;;;12.18;3.55;;;17.90;38.10;;;;;;5050003;28;20028;-74
2021/03/30 09:05:54;;;;;;;4.10;2.80;;;18.00;37.20;;;;;;5046184;28;20063;-74
2021/03/30 09:08:37;;;;;;;9.50;4.15;;;18.10;36.80;;;;;;5049698;28;20033;-74
2021/03/30 09:11:26;;;;;;;7.57;3.35;;;18.30;37.20;;;;;;5051311;28;20084;-73
2021/03/30 09:14:03;;;;;;;8.05;3.33;;;18.40;36.80;;;;;;5051874;28;20028;-73
2021/03/30 09:16:29;;;;;;;8.88;3.65;;;18.60;37.90;;;;;;5051871;28;20083;-73
2021/03/30 09:19:32;;;;;;;10.80;2.85;;;18.90;38.00;;;;;;5034308;28;20025;-73
2021/03/30 09:22:06;;;;;;;14.02;4.35;;;18.90;37.70;;;;;;5052185;28;20033;-73
2021/03/30 09:27:04;;;;;;;6.32;3.28;;;19.30;38.50;;;;;;5034373;28;20096;-73
2021/03/30 09:29:35;;;;;;;7.20;2.63;;;19.80;37.80;;;;;;5052163;28;20392;-74
2021/03/30 09:32:06;;;;;;;6.97;3.15;;;20.10;36.70;;;;;;5034559;28;20108;-74
2021/03/30 09:34:32;;;;;;;7.22;2.30;;;20.30;36.40;;;;;;5034477;28;20025;-74
2021/03/30 09:37:00;;;;;;;11.43;2.90;;;20.60;34.50;;;;;;5052185;28;20051;-74
2021/03/30 09:39:27;;;;;;;9.35;2.33;;;21.00;35.10;;;;;;5052066;28;20017;-74
2021/03/30 09:41:55;;;;;;;8.77;2.80;;;20.80;32.90;;;;;;5033872;28;20030;-74
2021/03/30 09:44:23;;;;;;;3.97;2.33;;;21.10;34.20;;;;;;5050421;28;20472;-74
2021/03/30 09:46:55;;;;;;;17.45;3.33;;;21.50;34.40;;;;;;5034032;28;20028;-74
2021/03/30 09:49:21;;;;;;;;;;;21.70;34.20;;;;;;5055352;28;20484;-75
2021/03/30 09:51:48;;;;;;;6.25;2.42;;;21.60;34.50;;;;;;5055922;28;19990;-75
2021/03/30 09:54:24;;;;;;;4.70;2.70;;;21.60;34.30;;;;;;5055045;28;20029;-74
2021/03/30 09:57:02;;;;;;;14.32;3.60;;;22.10;35.90;;;;;;5033654;28;20029;-75
2021/03/30 09:59:29;;;;;;;7.90;3.05;;;22.30;35.90;;;;;;5054703;28;20491;-74
2021/03/30 10:01:56;;;;;;;11.80;3.70;;;22.70;35.20;;;;;;5054866;28;20028;-75
2021/03/30 10:04:24;;;;;;;9.25;3.17;;;22.50;34.40;;;;;;5037022;28;20021;-74
2021/03/30 10:06:51;;;;;;;11.52;3.30;;;22.70;35.30;;;;;;5054534;28;20032;-75
2021/03/30 10:09:17;;;;;;;10.07;3.05;;;22.90;34.80;;;;;;5054482;28;20054;-75
2021/03/30 10:11:45;;;;;;;12.25;3.40;;;23.20;33.70;;;;;;5054073;28;20108;-74
2021/03/30 10:14:27;;;;;;;11.88;3.58;;;23.30;31.90;;;;;;5036571;28;20025;-75
2021/03/30 10:16:58;;;;;;;6.95;3.63;;;23.30;32.00;;;;;;5036505;28;20029;-73
2021/03/30 10:19:25;;;;;;;9.05;3.33;;;23.40;31.30;;;;;;5054281;28;20032;-74
2021/03/30 10:21:56;;;;;;;11.40;4.50;;;23.50;31.90;;;;;;5054665;28;20055;-74
2021/03/30 10:24:22;;;;;;;;;;;23.90;30.70;;;;;;5055678;28;20050;-73
2021/03/30 10:27:10;;;;;;;19.02;5.43;;;23.50;28.80;;;;;;5055050;28;19904;-74
2021/03/30 10:29:40;;;;;;;10.45;5.30;;;23.60;28.60;;;;;;5055229;28;20048;-74
2021/03/30 10:32:17;;;;;;;6.82;4.43;;;23.60;28.70;;;;;;5054980;28;20064;-74
2021/03/30 10:34:43;;;;;;;8.68;5.30;;;23.40;29.10;;;;;;5054989;28;20021;-74
2021/03/30 10:37:11;;;;;;;7.95;4.40;;;23.70;29.30;;;;;;5054737;28;20039;-74
2021/03/30 10:39:39;;;;;;;11.45;4.43;;;23.80;29.80;;;;;;5054755;28;20112;-74
2021/03/30 10:42:09;;;;;;;10.57;4.20;;;23.90;30.30;;;;;;5055043;28;20025;-74
2021/03/30 10:44:48;;;;;;;10.02;4.78;;;23.50;30.60;;;;;;5054780;28;20029;-74
2021/03/30 10:47:22;;;;;;;15.93;4.90;;;24.10;29.20;;;;;;5055002;28;20109;-74
2021/03/30 10:49:50;;;;;;;11.02;6.03;;;24.60;29.30;;;;;;5054763;28;20021;-74
2021/03/30 10:52:28;;;;;;;7.72;4.70;;;24.30;29.50;;;;;;5036989;28;20044;-74
2021/03/30 10:54:58;;;;;;;12.50;5.53;;;24.60;29.10;;;;;;5054875;28;20021;-74
2021/03/30 10:57:30;;;;;;;13.63;5.65;;;25.10;28.90;;;;;;5054524;28;20412;-74
2021/03/30 10:59:56;;;;;;;;;;;25.20;28.20;;;;;;5036906;28;20075;-74
2021/03/30 11:02:23;;;;;;;8.65;4.40;;;25.00;28.20;;;;;;5054526;28;20435;-74
2021/03/30 11:04:49;;;;;;;10.23;4.00;;;24.90;29.10;;;;;;5054750;28;20108;-74
2021/03/30 11:07:14;;;;;;;7.85;3.33;;;25.10;28.90;;;;;;5054435;28;20487;-74
2021/03/30 11:09:42;;;;;;;11.05;3.75;;;25.20;28.00;;;;;;5054276;28;20037;-74
2021/03/30 11:12:09;;;;;;;10.57;3.67;;;25.10;28.70;;;;;;5053915;28;20070;-74
2021/03/30 11:14:34;;;;;;;15.63;5.68;;;24.80;28.00;;;;;;5054058;28;20021;-73
2021/03/30 11:17:00;;;;;;;8.27;3.88;;;24.50;27.30;;;;;;5054030;28;20032;-73
2021/03/30 11:19:27;;;;;;;8.52;3.60;;;24.50;28.40;;;;;;5053951;28;20029;-73
2021/03/30 11:21:53;;;;;;;10.13;3.30;;;24.70;28.20;;;;;;5053924;28;20495;-73
2021/03/30 11:24:21;;;;;;;9.88;3.75;;;25.10;28.10;;;;;;5053961;28;20021;-75
2021/03/30 11:26:48;;;;;;;7.57;3.83;;;25.30;27.70;;;;;;5035960;28;20079;-74
2021/03/30 11:30:05;;;;;;;7.20;4.03;;;25.10;27.50;;;;;;5053912;28;20508;-73
2021/03/30 11:39:36;;;;;;;11.68;4.65;;;25.60;27.70;;;;;;5053547;28;20027;-73
2021/03/30 11:42:04;;;;;;;13.68;4.03;;;25.70;27.60;;;;;;5053635;28;20029;-73
2021/03/30 11:44:29;;;;;;;13.18;3.80;;;25.80;27.80;;;;;;5035827;28;20604;-73
2021/03/30 11:46:55;;;;;;;8.32;4.13;;;25.80;27.90;;;;;;5035674;28;20032;-73
2021/03/30 11:49:21;;;;;;;10.73;4.68;;;25.10;27.30;;;;;;5053369;28;20025;-73
2021/03/30 11:51:47;;;;;;;10.43;4.38;;;24.50;27.80;;;;;;5035285;28;20021;-73
2021/03/30 11:54:12;;;;;;;15.10;4.03;;;24.70;28.80;;;;;;5053352;28;20369;-73
2021/03/30 11:56:38;;;;;;;4.78;2.60;;;25.10;28.40;;;;;;5053205;28;20481;-73
2021/03/30 11:59:04;;;;;;;5.82;4.43;;;25.10;26.90;;;;;;5052768;28;20444;-73
2021/03/30 12:01:30;;;;;;;6.10;3.75;;;25.50;27.60;;;;;;5018554;28;20028;-73
2021/03/30 12:03:55;;;;;;;5.47;3.10;;;25.60;27.30;;;;;;5052854;28;20017;-73
2021/03/30 12:06:21;;;;;;;10.50;3.20;;;25.00;26.40;;;;;;5052867;28;20079;-73
2021/03/30 12:08:47;;;;;;;6.18;3.17;;;25.20;27.30;;;;;;5052888;28;20040;-73
2021/03/30 12:11:12;;;;;;;13.63;2.80;;;25.70;26.70;;;;;;5052030;28;20024;-73
2021/03/30 12:13:39;;;;;;;7.47;2.55;;;25.90;25.60;;;;;;5052883;28;20388;-73
2021/03/30 12:16:05;;;;;;;5.45;2.30;;;25.40;26.40;;;;;;5052539;28;20033;-73
2021/03/30 12:18:31;;;;;;;10.70;2.95;;;25.10;26.70;;;;;;5052733;28;20044;-73
2021/03/30 12:20:57;;;;;;;14.00;3.58;;;24.70;27.90;;;;;;5052672;28;20495;-74
2021/03/30 12:23:23;;;;;;;10.25;3.40;;;24.70;28.30;;;;;;5052950;28;20032;-73
2021/03/30 12:25:48;;;;;;;18.17;3.63;;;24.50;28.40;;;;;;5034904;28;20032;-73
2021/03/30 12:28:14;;;;;;;9.82;3.05;;;24.30;28.10;;;;;;5051418;28;20104;-73
2021/03/30 12:30:40;;;;;;;6.07;2.42;;;24.20;27.70;;;;;;5034717;28;20051;-73
2021/03/30 12:33:05;;;;;;;11.82;3.42;;;24.20;27.90;;;;;;5052409;28;20025;-73
2021/03/30 12:35:31;;;;;;;5.57;3.30;;;24.20;27.30;;;;;;5052438;28;20104;-73
2021/03/30 12:37:57;;;;;;;10.43;3.47;;;24.50;28.80;;;;;;5052107;28;20059;-73
2021/03/30 12:40:23;;;;;;;11.98;3.53;;;24.10;28.10;;;;;;5052166;28;20017;-73
2021/03/30 12:42:51;;;;;;;13.68;3.72;;;24.10;28.90;;;;;;5034107;28;20108;-73
2021/03/30 12:45:17;;;;;;;19.33;3.53;;;23.90;29.30;;;;;;5034795;28;20046;-73
2021/03/30 12:47:43;;;;;;;19.42;3.67;;;23.40;29.40;;;;;;5052216;28;20025;-74
2021/03/30 12:50:09;;;;;;;4.45;2.38;;;23.60;29.40;;;;;;5052083;28;20032;-73
2021/03/30 12:52:35;;;;;;;10.32;3.55;;;23.80;28.70;;;;;;5052004;28;20496;-73
2021/03/30 12:55:06;;;;;;;8.27;2.13;;;23.90;28.50;;;;;;5051931;28;20025;-73
2021/03/30 12:57:33;;;;;;;6.20;2.00;;;23.80;27.20;;;;;;5052016;28;20107;-73
2021/03/30 12:59:59;;;;;;;4.65;2.38;;;23.90;26.80;;;;;;5034101;28;20264;-73
2021/03/30 13:02:25;;;;;;;11.70;3.05;;;24.00;26.20;;;;;;5052397;28;20032;-73
2021/03/30 13:04:51;;;;;;;6.25;2.80;;;24.00;27.40;;;;;;5051780;28;20477;-73
2021/03/30 13:07:19;;;;;;;5.38;2.65;;;23.90;27.60;;;;;;5052099;28;20025;-73
2021/03/30 13:09:49;;;;;;;21.45;3.55;;;23.70;27.50;;;;;;5051810;28;20064;-73
2021/03/30 13:12:15;;;;;;;9.75;4.10;;;23.70;27.70;;;;;;5051815;28;20430;-73
2021/03/30 13:14:41;;;;;;;6.32;2.67;;;23.50;28.00;;;;;;5051676;28;20075;-74
2021/03/30 13:17:07;;;;;;;4.57;3.08;;;23.70;28.30;;;;;;5049992;28;20033;-74
2021/03/30 13:19:33;;;;;;;8.38;2.80;;;23.70;27.40;;;;;;5050398;28;20111;-74
2021/03/30 13:21:59;;;;;;;6.88;2.78;;;23.40;27.60;;;;;;5050980;28;20017;-73